This is the latest recevied weather packets stored in our database for station/object WI0K. If no packets are shown the sender has not sent any weather packets the latest 10 day(s).
| Time | Temp. | Humidity | Pressure | Rain* | Wind** | Luminosity | Snow |
|---|---|---|---|---|---|---|---|
| 1787848880 | 25.56° C | 46% | 836.5 hPa | 0 mm | - | 782 W/m² | - |
| 1787848579 | 25.56° C | 50% | 836.6 hPa | 0 mm | - | 770 W/m² | - |
| 1787848279 | 25° C | 50% | 1024.5 hPa | 0 mm | - | 742 W/m² | - |
| 1787847978 | 25° C | 53% | 836.6 hPa | 0 mm | - | 742 W/m² | - |
| 1787847677 | 25° C | 52% | 836.6 hPa | 0 mm | - | 730 W/m² | - |
| 1787847376 | 25° C | 51% | 836.6 hPa | 0 mm | - | 715 W/m² | - |
| 1787847076 | 25° C | 52% | 836.6 hPa | 0 mm | - | 701 W/m² | - |
| 1787846775 | 25° C | 52% | 836.6 hPa | 0 mm | - | 685 W/m² | - |
| 1787846474 | 25° C | 51% | 836.6 hPa | 0 mm | - | 670 W/m² | - |
| 1787846174 | 24.44° C | 48% | 1024.5 hPa | 0 mm | - | 645 W/m² | - |
| 1787845873 | 23.89° C | 50% | 1024.4 hPa | 0 mm | - | 636 W/m² | - |
| 1787845572 | 23.89° C | 52% | 836.5 hPa | 0 mm | - | 623 W/m² | - |
| 1787845272 | 23.33° C | 54% | 1024.4 hPa | 0 mm | - | 605 W/m² | - |
| 1787844971 | 23.33° C | 53% | 1024.4 hPa | 0 mm | - | 585 W/m² | - |
| 1787844670 | 23.33° C | 51% | 1024.4 hPa | 0 mm | - | 571 W/m² | - |
| 1787844370 | 23.89° C | 50% | 836.5 hPa | 0 mm | - | 555 W/m² | - |
| 1787844069 | 23.33° C | 53% | 1024.5 hPa | 0 mm | - | 538 W/m² | - |
| 1787843769 | 23.33° C | 53% | 1024.5 hPa | 0 mm | - | 504 W/m² | - |
| 1787843468 | 23.33° C | 52% | 836.6 hPa | 0 mm | - | 504 W/m² | - |
| 1787843171 | 22.78° C | 57% | 1024.5 hPa | 0 mm | - | 483 W/m² | - |
| 1787842867 | 22.78° C | 56% | 836.7 hPa | 0 mm | - | 468 W/m² | - |
| 1787842567 | 22.78° C | 55% | 1024.5 hPa | 0 mm | - | 444 W/m² | - |
| 1787842266 | 22.22° C | 59% | 1024.5 hPa | 0 mm | - | 428 W/m² | - |
| 1787841965 | 22.22° C | 59% | 1024.5 hPa | 0 mm | - | 406 W/m² | - |
| 1787841664 | 22.22° C | 57% | 1024.5 hPa | 0 mm | - | 388 W/m² | - |
* Rain latest hour (hover to see other rain measurements)
** Current wind speed in m/s (hover to see current wind gust speed)